Time;durP1;ratioP1;P1;durP2;ratioP2;P2;SDS_P1;SDS_P2;PMS_P1;PMS_P2;Temp;Humidity;BMP_temperature;BMP_pressure;BME280_temperature;BME280_humidity;BME280_pressure;Samples;Min_cycle;Max_cycle;Signal;HPM_P1;HPM_P2
2023/08/26 00:01:55;;;;;;;14.37;12.97;;;;;;;;;;5051200;28;20303;-48
2023/08/26 00:04:22;;;;;;;14.90;13.40;;;;;;;;;;5052066;28;20183;-47
2023/08/26 00:06:56;;;;;;;16.47;14.73;;;;;;;;;;5049567;28;20612;-47
2023/08/26 00:09:22;;;;;;;15.70;13.93;;;;;;;;;;5051358;28;20184;-46
2023/08/26 00:11:50;;;;;;;16.00;14.43;;;;;;;;;;5051951;28;20666;-49
2023/08/26 00:14:16;;;;;;;14.07;12.67;;;;;;;;;;5051653;28;20180;-51
2023/08/26 00:16:42;;;;;;;16.37;12.83;;;;;;;;;;5051231;28;20185;-49
2023/08/26 00:19:08;;;;;;;14.13;12.83;;;;;;;;;;5055563;28;20735;-49
2023/08/26 00:21:35;;;;;;;13.03;11.73;;;;;;;;;;5057188;28;20218;-48
2023/08/26 00:24:01;;;;;;;14.73;12.27;;;;;;;;;;5057563;28;20662;-47
2023/08/26 00:26:29;;;;;;;11.40;10.30;;;;;;;;;;5057415;28;20197;-47
2023/08/26 00:28:56;;;;;;;11.40;10.30;;;;;;;;;;5056811;28;20170;-47
2023/08/26 00:31:23;;;;;;;14.13;12.73;;;;;;;;;;5055901;28;20188;-51
2023/08/26 00:33:51;;;;;;;14.23;12.70;;;;;;;;;;5055816;28;20799;-46
2023/08/26 00:36:19;;;;;;;14.10;12.50;;;;;;;;;;5053831;28;20184;-48
2023/08/26 00:38:45;;;;;;;16.67;13.53;;;;;;;;;;5056657;28;20198;-50
2023/08/26 00:41:12;;;;;;;17.60;15.57;;;;;;;;;;5055743;28;20188;-48
2023/08/26 00:43:39;;;;;;;15.30;13.70;;;;;;;;;;5055206;28;20180;-49
2023/08/26 00:46:06;;;;;;;16.83;15.10;;;;;;;;;;5054865;28;20223;-46
2023/08/26 00:48:32;;;;;;;15.17;13.67;;;;;;;;;;5056124;28;20169;-50
2023/08/26 00:50:58;;;;;;;17.80;14.83;;;;;;;;;;5057629;28;20643;-46
2023/08/26 00:53:24;;;;;;;17.70;15.67;;;;;;;;;;5056918;28;20169;-46
2023/08/26 00:55:51;;;;;;;16.23;14.53;;;;;;;;;;5056894;28;20227;-50
2023/08/26 00:58:18;;;;;;;16.97;15.27;;;;;;;;;;5057753;28;20181;-47
2023/08/26 01:00:53;;;;;;;15.77;14.17;;;;;;;;;;5057308;28;20165;-47
2023/08/26 01:03:19;;;;;;;18.50;16.67;;;;;;;;;;5056294;28;20251;-46
2023/08/26 01:05:46;;;;;;;20.40;18.20;;;;;;;;;;5050685;28;20303;-49
2023/08/26 01:08:13;;;;;;;20.50;17.63;;;;;;;;;;5050323;28;20173;-46
2023/08/26 01:10:39;;;;;;;16.10;14.43;;;;;;;;;;5051213;28;20170;-50
2023/08/26 01:13:09;;;;;;;22.20;19.80;;;;;;;;;;5052595;28;20510;-50
2023/08/26 01:15:40;;;;;;;18.13;16.20;;;;;;;;;;5052186;28;20181;-48
2023/08/26 01:18:08;;;;;;;21.50;16.60;;;;;;;;;;5049711;28;20204;-51
2023/08/26 01:20:35;;;;;;;18.70;16.77;;;;;;;;;;5053740;28;20162;-51
2023/08/26 01:23:01;;;;;;;25.10;20.80;;;;;;;;;;5052114;28;20170;-48
2023/08/26 01:25:30;;;;;;;22.57;19.33;;;;;;;;;;5052968;28;20504;-47
2023/08/26 01:27:56;;;;;;;23.70;19.83;;;;;;;;;;5052662;28;20275;-46
2023/08/26 01:30:25;;;;;;;22.40;20.00;;;;;;;;;;5051825;28;20173;-50
2023/08/26 01:32:58;;;;;;;25.17;21.70;;;;;;;;;;5051786;28;20610;-50
2023/08/26 01:35:27;;;;;;;19.63;16.70;;;;;;;;;;5050310;28;20197;-47
2023/08/26 01:37:56;;;;;;;19.70;17.60;;;;;;;;;;5051192;28;20187;-47
2023/08/26 01:40:23;;;;;;;23.67;21.07;;;;;;;;;;5050922;28;20522;-50
2023/08/26 01:42:50;;;;;;;24.27;21.20;;;;;;;;;;5050511;28;20173;-46
2023/08/26 01:45:17;;;;;;;25.43;21.37;;;;;;;;;;5051108;28;20427;-46
2023/08/26 01:47:44;;;;;;;24.17;20.40;;;;;;;;;;5049634;28;20216;-46
2023/08/26 01:50:10;;;;;;;25.50;22.77;;;;;;;;;;5049199;28;20262;-46
2023/08/26 01:52:37;;;;;;;23.77;20.57;;;;;;;;;;5051757;28;20173;-49
2023/08/26 01:55:05;;;;;;;24.33;21.73;;;;;;;;;;5050204;28;20173;-48
2023/08/26 01:57:31;;;;;;;29.93;25.90;;;;;;;;;;5050614;28;20200;-49
2023/08/26 01:59:57;;;;;;;22.10;19.40;;;;;;;;;;5050581;28;20272;-46
2023/08/26 02:02:24;;;;;;;22.50;20.20;;;;;;;;;;5049140;28;20257;-46
2023/08/26 02:04:50;;;;;;;29.60;26.30;;;;;;;;;;5050138;28;20238;-49
2023/08/26 02:07:16;;;;;;;25.90;22.57;;;;;;;;;;5051307;28;20572;-48
2023/08/26 02:09:42;;;;;;;23.97;21.47;;;;;;;;;;5051073;28;20264;-46
2023/08/26 02:12:08;;;;;;;25.40;22.67;;;;;;;;;;5051479;28;20255;-46
2023/08/26 02:14:34;;;;;;;24.20;21.70;;;;;;;;;;5050990;28;20173;-48
2023/08/26 02:17:00;;;;;;;21.43;19.23;;;;;;;;;;5051161;28;20182;-48
2023/08/26 02:19:26;;;;;;;23.43;20.97;;;;;;;;;;5051675;28;20173;-49
2023/08/26 02:21:53;;;;;;;31.60;26.37;;;;;;;;;;5050492;28;20636;-51
2023/08/26 02:24:19;;;;;;;30.00;25.97;;;;;;;;;;5049455;28;20196;-48
2023/08/26 02:26:45;;;;;;;31.90;26.40;;;;;;;;;;5049287;28;20405;-51
2023/08/26 02:29:11;;;;;;;31.67;26.70;;;;;;;;;;5049314;28;20216;-48
2023/08/26 02:31:38;;;;;;;27.10;24.33;;;;;;;;;;5050196;28;20448;-48
2023/08/26 02:34:04;;;;;;;27.87;24.67;;;;;;;;;;5050826;28;20142;-48
2023/08/26 02:36:30;;;;;;;28.13;25.30;;;;;;;;;;5050926;28;20185;-48
2023/08/26 02:38:56;;;;;;;30.77;25.87;;;;;;;;;;5049470;28;20173;-47
2023/08/26 02:41:22;;;;;;;30.67;26.07;;;;;;;;;;5049805;28;20169;-48
2023/08/26 02:43:49;;;;;;;28.37;24.90;;;;;;;;;;5050973;28;20173;-49
2023/08/26 02:46:14;;;;;;;32.33;27.63;;;;;;;;;;5050532;28;20213;-46
2023/08/26 02:48:40;;;;;;;28.97;25.97;;;;;;;;;;5049074;28;20331;-49
2023/08/26 02:51:06;;;;;;;36.50;28.07;;;;;;;;;;5050047;28;20169;-51
2023/08/26 02:53:32;;;;;;;28.23;25.17;;;;;;;;;;5050474;28;20170;-47
2023/08/26 02:55:59;;;;;;;31.43;26.67;;;;;;;;;;5052136;28;20204;-46
2023/08/26 02:58:26;;;;;;;33.73;30.07;;;;;;;;;;5049971;28;20196;-47
2023/08/26 03:00:55;;;;;;;34.53;28.23;;;;;;;;;;5049175;28;20188;-51
2023/08/26 03:03:21;;;;;;;34.00;28.03;;;;;;;;;;5046679;28;20225;-50
2023/08/26 03:05:47;;;;;;;33.50;28.90;;;;;;;;;;5049542;28;20375;-49
2023/08/26 03:08:13;;;;;;;30.23;27.00;;;;;;;;;;5050348;28;20321;-47
2023/08/26 03:10:39;;;;;;;31.50;27.33;;;;;;;;;;5049820;28;20335;-46
2023/08/26 03:13:07;;;;;;;32.03;26.80;;;;;;;;;;5049563;28;20172;-50
2023/08/26 03:15:33;;;;;;;27.87;24.90;;;;;;;;;;5049523;28;20451;-48
2023/08/26 03:17:59;;;;;;;27.43;23.33;;;;;;;;;;5052004;28;20234;-46
2023/08/26 03:20:27;;;;;;;24.23;21.03;;;;;;;;;;5048391;28;20291;-47
2023/08/26 03:22:56;;;;;;;26.40;23.57;;;;;;;;;;5049917;28;20177;-46
2023/08/26 03:25:23;;;;;;;26.87;22.50;;;;;;;;;;5048367;28;20280;-48
2023/08/26 03:27:49;;;;;;;23.80;20.87;;;;;;;;;;5049037;28;20336;-46
2023/08/26 03:30:17;;;;;;;25.17;20.27;;;;;;;;;;5048736;28;20184;-49
2023/08/26 03:32:43;;;;;;;27.83;20.53;;;;;;;;;;5049149;28;20219;-48
2023/08/26 03:35:09;;;;;;;28.63;23.30;;;;;;;;;;5049271;28;20422;-46
2023/08/26 03:37:35;;;;;;;32.83;23.03;;;;;;;;;;5051535;28;20264;-47
2023/08/26 03:40:06;;;;;;;25.13;22.33;;;;;;;;;;5050284;28;20181;-51
2023/08/26 03:42:32;;;;;;;27.60;22.97;;;;;;;;;;5049593;28;20177;-52
2023/08/26 03:44:58;;;;;;;26.80;22.47;;;;;;;;;;5049480;28;20242;-50
2023/08/26 03:47:24;;;;;;;25.57;21.57;;;;;;;;;;5050263;28;20319;-51
2023/08/26 03:49:51;;;;;;;27.73;22.97;;;;;;;;;;5048688;28;20173;-47
2023/08/26 03:52:17;;;;;;;30.90;23.70;;;;;;;;;;5048195;28;20169;-47
2023/08/26 03:54:44;;;;;;;23.70;20.20;;;;;;;;;;5050671;28;20197;-48
2023/08/26 03:57:09;;;;;;;28.40;23.20;;;;;;;;;;5049863;28;20542;-50
2023/08/26 03:59:35;;;;;;;28.27;23.00;;;;;;;;;;5048883;28;20192;-49
2023/08/26 04:02:02;;;;;;;27.20;21.13;;;;;;;;;;5047760;28;20609;-47
2023/08/26 04:04:29;;;;;;;26.90;22.20;;;;;;;;;;5049251;28;20502;-50
2023/08/26 04:06:57;;;;;;;30.80;23.63;;;;;;;;;;5047911;28;20235;-49
2023/08/26 04:09:24;;;;;;;27.30;23.43;;;;;;;;;;5046990;28;20188;-48
2023/08/26 04:11:50;;;;;;;24.57;20.50;;;;;;;;;;5046603;28;20196;-50
2023/08/26 04:14:16;;;;;;;29.17;23.33;;;;;;;;;;5046454;28;20180;-48
2023/08/26 04:16:42;;;;;;;26.63;21.97;;;;;;;;;;5047539;28;20186;-46
2023/08/26 04:19:08;;;;;;;24.83;21.43;;;;;;;;;;5046968;28;20188;-47
2023/08/26 04:21:34;;;;;;;24.23;20.67;;;;;;;;;;5047465;28;20450;-48
2023/08/26 04:24:00;;;;;;;24.97;21.43;;;;;;;;;;5047314;28;20313;-46
2023/08/26 04:26:29;;;;;;;23.70;21.20;;;;;;;;;;5045628;28;20300;-50
2023/08/26 04:28:58;;;;;;;20.77;18.57;;;;;;;;;;5048268;28;20269;-46
2023/08/26 04:31:24;;;;;;;24.03;20.23;;;;;;;;;;5046489;28;20193;-49
2023/08/26 04:33:52;;;;;;;23.53;19.00;;;;;;;;;;5048681;28;20271;-47
2023/08/26 04:36:19;;;;;;;23.20;19.97;;;;;;;;;;5048198;28;20184;-48
2023/08/26 04:38:46;;;;;;;26.90;22.43;;;;;;;;;;5046948;28;20352;-48
2023/08/26 04:41:12;;;;;;;24.80;19.53;;;;;;;;;;5047282;28;20278;-46
2023/08/26 04:43:40;;;;;;;33.90;22.20;;;;;;;;;;5048282;28;20554;-48
2023/08/26 04:46:08;;;;;;;30.33;23.43;;;;;;;;;;5048099;28;20448;-48
2023/08/26 04:48:34;;;;;;;29.20;21.43;;;;;;;;;;5048914;28;20423;-47
2023/08/26 04:51:01;;;;;;;29.73;21.30;;;;;;;;;;5045889;28;20321;-51
2023/08/26 04:53:27;;;;;;;30.10;22.70;;;;;;;;;;5046570;28;20184;-46
2023/08/26 04:55:54;;;;;;;31.33;24.00;;;;;;;;;;5048219;28;20465;-47
2023/08/26 04:58:21;;;;;;;38.33;25.20;;;;;;;;;;5047499;28;20185;-49
2023/08/26 05:00:49;;;;;;;32.70;22.73;;;;;;;;;;5049418;28;20161;-50
2023/08/26 05:03:15;;;;;;;26.93;21.07;;;;;;;;;;5047090;28;20233;-48
2023/08/26 05:05:42;;;;;;;28.67;21.23;;;;;;;;;;5049928;28;20189;-48
2023/08/26 05:08:08;;;;;;;28.83;20.53;;;;;;;;;;5050713;28;20208;-50
2023/08/26 05:10:42;;;;;;;30.67;22.30;;;;;;;;;;5051185;28;20184;-46
2023/08/26 05:13:09;;;;;;;26.73;19.70;;;;;;;;;;5051051;28;20328;-46
2023/08/26 05:15:35;;;;;;;25.60;20.87;;;;;;;;;;5051057;28;20472;-48
2023/08/26 05:18:01;;;;;;;25.03;19.67;;;;;;;;;;5052203;28;20185;-50
2023/08/26 05:20:29;;;;;;;22.60;18.43;;;;;;;;;;5051266;28;20308;-51
2023/08/26 05:22:56;;;;;;;23.10;17.90;;;;;;;;;;5050751;28;20169;-48
2023/08/26 05:25:22;;;;;;;24.30;17.17;;;;;;;;;;5050583;28;20232;-51
2023/08/26 05:27:49;;;;;;;21.07;14.40;;;;;;;;;;5050256;28;20201;-51
2023/08/26 05:30:18;;;;;;;21.03;16.07;;;;;;;;;;5050938;28;20175;-48
2023/08/26 05:32:44;;;;;;;17.67;14.23;;;;;;;;;;5050082;28;20173;-46
2023/08/26 05:35:10;;;;;;;21.37;15.87;;;;;;;;;;5050814;28;20173;-52
2023/08/26 05:37:44;;;;;;;23.30;16.60;;;;;;;;;;5051318;28;20185;-50
2023/08/26 05:40:16;;;;;;;21.57;16.07;;;;;;;;;;5051133;28;20538;-46
2023/08/26 05:42:42;;;;;;;18.60;15.77;;;;;;;;;;5048858;28;20407;-46
2023/08/26 05:45:15;;;;;;;17.87;13.43;;;;;;;;;;5048919;28;20196;-48
2023/08/26 05:47:41;;;;;;;19.77;14.63;;;;;;;;;;5051547;28;20236;-51
2023/08/26 05:50:08;;;;;;;19.60;14.77;;;;;;;;;;5052800;28;20266;-46
2023/08/26 05:52:34;;;;;;;18.23;13.83;;;;;;;;;;5052516;28;20162;-46
2023/08/26 05:55:01;;;;;;;18.00;13.33;;;;;;;;;;5049961;28;20243;-49
2023/08/26 05:57:27;;;;;;;21.40;15.77;;;;;;;;;;5049517;28;20538;-46
2023/08/26 05:59:53;;;;;;;18.33;15.30;;;;;;;;;;5046101;28;20379;-51
2023/08/26 06:02:19;;;;;;;21.53;16.33;;;;;;;;;;5047470;28;20221;-47
2023/08/26 06:04:46;;;;;;;16.63;13.67;;;;;;;;;;5048775;28;20181;-49
2023/08/26 06:07:12;;;;;;;21.37;16.43;;;;;;;;;;5045766;28;20476;-49
2023/08/26 06:09:38;;;;;;;18.53;15.63;;;;;;;;;;5047578;28;20209;-50
2023/08/26 06:12:04;;;;;;;22.27;15.17;;;;;;;;;;5048919;28;20169;-46
2023/08/26 06:14:30;;;;;;;21.73;16.17;;;;;;;;;;5048271;28;20169;-50
2023/08/26 06:16:56;;;;;;;17.70;14.37;;;;;;;;;;5048530;28;20184;-49
2023/08/26 06:19:22;;;;;;;19.60;14.93;;;;;;;;;;5048434;28;20177;-48
2023/08/26 06:21:48;;;;;;;19.00;14.70;;;;;;;;;;5048831;28;20181;-51
2023/08/26 06:24:16;;;;;;;15.80;13.70;;;;;;;;;;5048629;28;20270;-47
2023/08/26 06:26:43;;;;;;;18.57;14.50;;;;;;;;;;5048987;28;20213;-47
2023/08/26 06:29:09;;;;;;;16.53;13.00;;;;;;;;;;5048162;28;20257;-50
2023/08/26 06:31:35;;;;;;;15.67;13.90;;;;;;;;;;5049168;28;20280;-49
2023/08/26 06:34:02;;;;;;;16.53;12.83;;;;;;;;;;5051298;28;20192;-50
2023/08/26 06:36:28;;;;;;;17.33;13.60;;;;;;;;;;5050718;28;20544;-50
2023/08/26 06:38:54;;;;;;;15.97;13.23;;;;;;;;;;5049136;28;20197;-49
2023/08/26 06:41:20;;;;;;;18.37;12.03;;;;;;;;;;5047548;28;20173;-50
2023/08/26 06:43:46;;;;;;;14.03;11.47;;;;;;;;;;5047894;28;20177;-47
2023/08/26 06:46:13;;;;;;;12.70;11.30;;;;;;;;;;5048440;28;20193;-51
2023/08/26 06:48:41;;;;;;;12.17;10.27;;;;;;;;;;5048781;28;20181;-49
2023/08/26 06:51:09;;;;;;;11.13;9.77;;;;;;;;;;5048390;28;20455;-50
2023/08/26 06:53:35;;;;;;;13.80;9.23;;;;;;;;;;5046989;28;20169;-51
2023/08/26 06:56:01;;;;;;;11.03;9.00;;;;;;;;;;5045424;28;20393;-49
2023/08/26 06:58:28;;;;;;;11.30;8.97;;;;;;;;;;5044992;28;20249;-48
2023/08/26 07:00:54;;;;;;;13.17;8.40;;;;;;;;;;5044042;28;20205;-46
2023/08/26 07:03:20;;;;;;;10.07;7.73;;;;;;;;;;5044960;28;20229;-48
2023/08/26 07:05:47;;;;;;;9.30;8.37;;;;;;;;;;5044653;28;20272;-47
2023/08/26 07:08:16;;;;;;;8.87;6.90;;;;;;;;;;5044622;28;20209;-47
2023/08/26 07:10:44;;;;;;;9.13;7.77;;;;;;;;;;5046527;28;20677;-46
2023/08/26 07:13:15;;;;;;;9.93;7.57;;;;;;;;;;5047559;28;20268;-47
2023/08/26 07:15:41;;;;;;;9.97;6.90;;;;;;;;;;5045998;28;20212;-47
2023/08/26 07:18:07;;;;;;;10.50;7.70;;;;;;;;;;5044097;28;20201;-48
2023/08/26 07:20:33;;;;;;;7.40;6.57;;;;;;;;;;5045858;28;20162;-51
2023/08/26 07:23:00;;;;;;;8.50;6.40;;;;;;;;;;5042937;28;20301;-51
2023/08/26 07:25:27;;;;;;;10.60;6.63;;;;;;;;;;5041611;28;20180;-52
2023/08/26 07:27:53;;;;;;;7.50;5.97;;;;;;;;;;5040935;28;20581;-48
2023/08/26 07:30:19;;;;;;;6.97;6.03;;;;;;;;;;5042089;28;20165;-50
2023/08/26 07:32:45;;;;;;;6.47;5.03;;;;;;;;;;5043268;28;20190;-48
2023/08/26 07:35:11;;;;;;;5.70;5.10;;;;;;;;;;5041891;28;20524;-48
2023/08/26 07:37:37;;;;;;;8.17;5.63;;;;;;;;;;5043414;28;20327;-46
2023/08/26 07:40:07;;;;;;;5.27;4.37;;;;;;;;;;5043027;28;20286;-49
2023/08/26 07:42:35;;;;;;;6.70;5.07;;;;;;;;;;5042014;28;20326;-49
2023/08/26 07:45:02;;;;;;;5.23;4.70;;;;;;;;;;5041895;28;20301;-47
2023/08/26 07:47:28;;;;;;;5.33;4.40;;;;;;;;;;5044112;28;20595;-46
2023/08/26 07:49:56;;;;;;;7.03;5.23;;;;;;;;;;5045842;28;20234;-47
2023/08/26 07:52:22;;;;;;;6.73;4.50;;;;;;;;;;5044332;28;20188;-53
2023/08/26 07:54:48;;;;;;;6.13;4.50;;;;;;;;;;5042025;28;20169;-51
2023/08/26 07:57:15;;;;;;;7.77;4.33;;;;;;;;;;5044216;28;20176;-47
2023/08/26 07:59:41;;;;;;;5.60;3.87;;;;;;;;;;5043445;28;20264;-52
2023/08/26 08:02:08;;;;;;;5.00;3.90;;;;;;;;;;5041990;28;20748;-47
2023/08/26 08:04:37;;;;;;;9.40;4.73;;;;;;;;;;5041911;28;20582;-47
2023/08/26 08:07:03;;;;;;;5.10;3.83;;;;;;;;;;5040681;28;20213;-50
2023/08/26 08:09:30;;;;;;;4.53;3.60;;;;;;;;;;5044667;28;20170;-49
2023/08/26 08:11:57;;;;;;;6.20;3.97;;;;;;;;;;5042578;28;20361;-47
2023/08/26 08:14:23;;;;;;;5.97;4.50;;;;;;;;;;5043411;28;20429;-51
2023/08/26 08:16:49;;;;;;;6.87;3.93;;;;;;;;;;5043182;28;20396;-48
2023/08/26 08:19:15;;;;;;;4.10;3.23;;;;;;;;;;5044834;28;20173;-48
2023/08/26 08:21:41;;;;;;;7.20;4.17;;;;;;;;;;5043235;28;20170;-51
2023/08/26 08:24:07;;;;;;;4.97;3.67;;;;;;;;;;5045027;28;20184;-47
2023/08/26 08:26:35;;;;;;;5.70;3.20;;;;;;;;;;5047023;28;20419;-51
2023/08/26 08:29:01;;;;;;;4.27;3.10;;;;;;;;;;5044869;28;20170;-48
2023/08/26 08:31:28;;;;;;;4.23;3.03;;;;;;;;;;5046244;28;20466;-51
2023/08/26 08:33:54;;;;;;;5.97;2.87;;;;;;;;;;5044175;28;20177;-48
2023/08/26 08:36:21;;;;;;;3.33;2.53;;;;;;;;;;5044932;28;20327;-48
2023/08/26 08:38:47;;;;;;;4.33;2.40;;;;;;;;;;5047686;28;20306;-49
2023/08/26 08:41:14;;;;;;;4.43;2.83;;;;;;;;;;5051856;28;20174;-49
2023/08/26 08:43:42;;;;;;;3.07;2.50;;;;;;;;;;5053798;28;20470;-50
2023/08/26 08:46:09;;;;;;;3.00;2.57;;;;;;;;;;5052163;28;20161;-51
2023/08/26 08:48:35;;;;;;;4.07;2.47;;;;;;;;;;5052459;28;20201;-51
2023/08/26 08:51:01;;;;;;;3.30;2.60;;;;;;;;;;5051400;28;20270;-51
2023/08/26 08:53:32;;;;;;;4.67;2.70;;;;;;;;;;5052507;28;20557;-48
2023/08/26 08:56:06;;;;;;;4.63;2.30;;;;;;;;;;5051567;28;20246;-49
2023/08/26 08:58:32;;;;;;;4.43;2.80;;;;;;;;;;5050717;28;20191;-47
2023/08/26 09:00:59;;;;;;;5.20;2.80;;;;;;;;;;5051676;28;20174;-50
2023/08/26 09:03:27;;;;;;;3.77;2.37;;;;;;;;;;5050881;28;20318;-48
2023/08/26 09:05:53;;;;;;;4.03;2.50;;;;;;;;;;5052718;28;20197;-47
2023/08/26 09:08:20;;;;;;;2.90;2.27;;;;;;;;;;5049969;28;20216;-52
2023/08/26 09:10:47;;;;;;;4.47;2.30;;;;;;;;;;5051964;28;20161;-48
2023/08/26 09:13:13;;;;;;;4.73;2.57;;;;;;;;;;5049765;28;20170;-47
2023/08/26 09:15:39;;;;;;;3.40;2.10;;;;;;;;;;5053258;28;20177;-48
2023/08/26 09:18:13;;;;;;;7.20;2.20;;;;;;;;;;5052591;28;20185;-47
2023/08/26 09:20:39;;;;;;;6.17;3.00;;;;;;;;;;5052193;28;20187;-47
2023/08/26 09:23:07;;;;;;;5.20;2.13;;;;;;;;;;5051256;28;20177;-49
2023/08/26 09:25:38;;;;;;;4.30;2.70;;;;;;;;;;5051108;28;20177;-50
2023/08/26 09:28:04;;;;;;;5.30;2.13;;;;;;;;;;5050927;28;20201;-49
2023/08/26 09:30:31;;;;;;;4.63;2.30;;;;;;;;;;5051101;28;20184;-49
2023/08/26 09:32:57;;;;;;;4.17;1.90;;;;;;;;;;5048016;28;20170;-48
2023/08/26 09:35:23;;;;;;;6.23;2.00;;;;;;;;;;5048145;28;20165;-50
2023/08/26 09:38:08;;;;;;;2.30;1.40;;;;;;;;;;5049064;28;20254;-48
2023/08/26 09:40:35;;;;;;;2.97;1.60;;;;;;;;;;5050015;28;20184;-52
2023/08/26 09:43:06;;;;;;;3.50;1.70;;;;;;;;;;5049069;28;20260;-46
2023/08/26 09:45:36;;;;;;;3.47;1.60;;;;;;;;;;5051691;28;20247;-46
2023/08/26 09:48:02;;;;;;;2.33;1.50;;;;;;;;;;5049522;28;20515;-49
2023/08/26 09:50:32;;;;;;;2.93;1.70;;;;;;;;;;5051879;28;20795;-52
2023/08/26 09:52:58;;;;;;;2.73;1.90;;;;;;;;;;5050637;28;20201;-49
2023/08/26 09:55:25;;;;;;;4.67;2.10;;;;;;;;;;5050655;28;20180;-51
2023/08/26 09:57:53;;;;;;;2.93;2.43;;;;;;;;;;5049699;28;20553;-51
2023/08/26 10:00:20;;;;;;;3.53;2.50;;;;;;;;;;5047220;28;20757;-47
2023/08/26 10:02:51;;;;;;;4.33;2.13;;;;;;;;;;5047668;28;20225;-48
2023/08/26 10:05:19;;;;;;;3.93;1.93;;;;;;;;;;5049527;28;20193;-46
2023/08/26 10:07:50;;;;;;;3.03;1.97;;;;;;;;;;5047208;28;20596;-49
2023/08/26 10:10:34;;;;;;;2.40;1.97;;;;;;;;;;5048751;28;20170;-49
2023/08/26 10:13:03;;;;;;;2.20;2.00;;;;;;;;;;5047872;28;20764;-47
2023/08/26 10:15:32;;;;;;;2.77;2.10;;;;;;;;;;5048137;28;20784;-50
2023/08/26 10:18:01;;;;;;;3.70;2.07;;;;;;;;;;5047327;28;20280;-50
2023/08/26 10:20:29;;;;;;;5.33;2.17;;;;;;;;;;5045766;28;20169;-49
2023/08/26 10:23:00;;;;;;;3.83;2.13;;;;;;;;;;5046085;28;20557;-52
2023/08/26 10:25:28;;;;;;;1.93;1.40;;;;;;;;;;5049099;28;20488;-50
2023/08/26 10:27:59;;;;;;;5.87;1.43;;;;;;;;;;5046584;28;20207;-48
2023/08/26 10:30:26;;;;;;;3.17;1.57;;;;;;;;;;5046777;28;20239;-51
2023/08/26 10:33:04;;;;;;;3.67;1.87;;;;;;;;;;5047251;28;20197;-51
2023/08/26 10:35:31;;;;;;;1.93;1.43;;;;;;;;;;5048501;28;20184;-50
2023/08/26 10:38:09;;;;;;;3.83;1.90;;;;;;;;;;5049511;28;20161;-50
2023/08/26 10:40:35;;;;;;;3.13;1.50;;;;;;;;;;5049726;28;20165;-49
2023/08/26 10:43:09;;;;;;;3.00;1.63;;;;;;;;;;5048722;28;20173;-50
2023/08/26 10:45:48;;;;;;;3.53;1.90;;;;;;;;;;5048947;28;20204;-50
2023/08/26 10:48:14;;;;;;;4.20;1.50;;;;;;;;;;5050100;28;20200;-49
2023/08/26 10:50:43;;;;;;;2.63;1.63;;;;;;;;;;5048621;28;20173;-56
2023/08/26 10:53:21;;;;;;;2.37;1.20;;;;;;;;;;5048362;28;20176;-55
2023/08/26 10:55:51;;;;;;;3.40;1.50;;;;;;;;;;5050098;28;20758;-55
2023/08/26 10:58:22;;;;;;;2.50;1.27;;;;;;;;;;5049717;28;20219;-56
2023/08/26 11:00:49;;;;;;;4.83;1.57;;;;;;;;;;5046033;28;20284;-53
2023/08/26 11:03:19;;;;;;;1.77;1.17;;;;;;;;;;5047209;28;20228;-54
2023/08/26 11:05:46;;;;;;;2.60;1.20;;;;;;;;;;5047891;28;20173;-53
2023/08/26 11:08:13;;;;;;;2.53;1.33;;;;;;;;;;5047540;28;20663;-53
2023/08/26 11:10:40;;;;;;;1.13;1.00;;;;;;;;;;5050070;28;20220;-53
2023/08/26 11:13:09;;;;;;;2.70;1.10;;;;;;;;;;5047107;28;20169;-54
2023/08/26 11:15:35;;;;;;;2.57;1.10;;;;;;;;;;5049455;28;20776;-55
2023/08/26 11:18:02;;;;;;;1.50;1.07;;;;;;;;;;5046264;28;20223;-53
2023/08/26 11:20:28;;;;;;;3.40;1.30;;;;;;;;;;5043754;28;20264;-50
2023/08/26 11:22:56;;;;;;;1.27;1.15;;;;;;;;;;5045773;28;20169;-52
2023/08/26 11:25:23;;;;;;;1.52;1.20;;;;;;;;;;5046982;28;20230;-54
2023/08/26 11:27:49;;;;;;;2.35;1.00;;;;;;;;;;5045112;28;20267;-53
2023/08/26 11:30:18;;;;;;;2.75;1.38;;;;;;;;;;5047089;28;20169;-56
2023/08/26 11:32:49;;;;;;;12.03;1.87;;;;;;;;;;5046368;28;20205;-54
2023/08/26 11:35:16;;;;;;;1.73;1.30;;;;;;;;;;5045495;28;20220;-52
2023/08/26 11:37:43;;;;;;;2.13;1.20;;;;;;;;;;5043260;28;20170;-51
2023/08/26 11:40:10;;;;;;;2.57;1.37;;;;;;;;;;5025098;28;20199;-53
2023/08/26 11:42:36;;;;;;;5.30;1.10;;;;;;;;;;5021757;28;20277;-52
2023/08/26 11:45:03;;;;;;;1.80;1.13;;;;;;;;;;5021870;28;20197;-54
2023/08/26 11:47:35;;;;;;;2.37;1.23;;;;;;;;;;5020994;28;20212;-55
2023/08/26 11:50:01;;;;;;;3.90;1.07;;;;;;;;;;5045302;28;20172;-56
2023/08/26 11:52:34;;;;;;;4.17;1.07;;;;;;;;;;5047791;28;20165;-56
2023/08/26 11:55:03;;;;;;;3.15;0.93;;;;;;;;;;5044859;28;20264;-56
2023/08/26 11:57:31;;;;;;;1.98;1.08;;;;;;;;;;5046874;28;20174;-56
2023/08/26 12:00:13;;;;;;;2.15;0.90;;;;;;;;;;5044452;28;20181;-52
2023/08/26 12:02:41;;;;;;;1.48;0.95;;;;;;;;;;5045055;28;20221;-55
2023/08/26 12:05:07;;;;;;;2.13;0.88;;;;;;;;;;5043697;28;20234;-55
2023/08/26 12:07:34;;;;;;;4.40;1.20;;;;;;;;;;5044193;28;20350;-54
2023/08/26 12:10:10;;;;;;;1.13;1.02;;;;;;;;;;5045808;28;20334;-52
2023/08/26 12:12:39;;;;;;;4.43;1.20;;;;;;;;;;5047626;28;20263;-57
2023/08/26 12:15:06;;;;;;;3.90;1.00;;;;;;;;;;5051402;28;20188;-51
2023/08/26 12:17:32;;;;;;;4.13;1.23;;;;;;;;;;5052152;28;20200;-49
2023/08/26 12:19:58;;;;;;;1.90;1.10;;;;;;;;;;5052703;28;20165;-47
2023/08/26 12:22:24;;;;;;;1.67;1.00;;;;;;;;;;5052235;28;20236;-47
2023/08/26 12:24:50;;;;;;;5.03;1.30;;;;;;;;;;5050220;28;20266;-51
2023/08/26 12:27:24;;;;;;;2.17;1.40;;;;;;;;;;5050854;28;20205;-51
2023/08/26 12:29:50;;;;;;;0.80;0.80;;;;;;;;;;5052949;28;20174;-49
2023/08/26 12:32:16;;;;;;;2.40;1.53;;;;;;;;;;5052673;28;20697;-53
2023/08/26 12:34:43;;;;;;;4.57;1.63;;;;;;;;;;5050149;28;20169;-48
2023/08/26 12:37:10;;;;;;;2.07;1.20;;;;;;;;;;5050641;28;20188;-48
2023/08/26 12:39:36;;;;;;;1.27;1.13;;;;;;;;;;5049728;28;20656;-47
2023/08/26 12:42:03;;;;;;;2.03;1.10;;;;;;;;;;5049650;28;20184;-48
2023/08/26 12:44:29;;;;;;;1.77;1.00;;;;;;;;;;5048791;28;20174;-47
2023/08/26 12:46:58;;;;;;;2.70;1.20;;;;;;;;;;5048702;28;20410;-48
2023/08/26 12:49:25;;;;;;;4.20;1.10;;;;;;;;;;5047132;28;20253;-50
2023/08/26 12:51:51;;;;;;;4.07;1.60;;;;;;;;;;5045240;28;20185;-53
2023/08/26 12:54:17;;;;;;;2.33;1.33;;;;;;;;;;5048080;28;20239;-53
2023/08/26 12:56:43;;;;;;;3.03;1.23;;;;;;;;;;5047332;28;20182;-48
2023/08/26 12:59:11;;;;;;;1.67;0.97;;;;;;;;;;5048783;28;20180;-48
2023/08/26 13:01:37;;;;;;;1.40;1.27;;;;;;;;;;5047271;28;20173;-49
2023/08/26 13:04:04;;;;;;;3.63;1.47;;;;;;;;;;5006700;28;20316;-49
2023/08/26 13:06:30;;;;;;;3.17;1.97;;;;;;;;;;5002209;28;20189;-48
2023/08/26 13:08:56;;;;;;;4.17;1.47;;;;;;;;;;5005854;28;20166;-47
2023/08/26 13:11:23;;;;;;;4.97;1.80;;;;;;;;;;5005411;28;20361;-48
2023/08/26 13:13:49;;;;;;;3.90;2.13;;;;;;;;;;5035124;28;20158;-48
2023/08/26 13:16:15;;;;;;;3.97;1.60;;;;;;;;;;5053092;28;20391;-51
2023/08/26 13:18:43;;;;;;;3.67;2.20;;;;;;;;;;5051901;28;20553;-47
2023/08/26 13:21:10;;;;;;;3.93;2.00;;;;;;;;;;5051792;28;20333;-53
2023/08/26 13:23:37;;;;;;;4.63;1.97;;;;;;;;;;5048763;28;20196;-49
2023/08/26 13:26:03;;;;;;;5.67;2.20;;;;;;;;;;5048943;28;20169;-49
2023/08/26 13:28:30;;;;;;;7.17;2.47;;;;;;;;;;5050088;28;20287;-51
2023/08/26 13:31:02;;;;;;;4.97;2.40;;;;;;;;;;5048055;28;20234;-50
2023/08/26 13:33:28;;;;;;;2.30;1.93;;;;;;;;;;5050138;28;20178;-52
2023/08/26 13:35:55;;;;;;;4.50;2.40;;;;;;;;;;5050669;28;20184;-53
2023/08/26 13:38:21;;;;;;;2.67;2.30;;;;;;;;;;5050755;28;20241;-48
2023/08/26 13:40:47;;;;;;;4.93;1.90;;;;;;;;;;5051333;28;20176;-52
2023/08/26 13:43:13;;;;;;;4.77;2.70;;;;;;;;;;5049290;28;20185;-52
2023/08/26 13:45:38;;;;;;;3.27;2.80;;;;;;;;;;5022650;28;20184;-50
2023/08/26 13:48:10;;;;;;;2.80;2.37;;;;;;;;;;5015681;28;20219;-48
2023/08/26 13:50:36;;;;;;;3.80;2.67;;;;;;;;;;5022905;28;20169;-52
2023/08/26 13:53:02;;;;;;;3.90;2.67;;;;;;;;;;5013834;28;20173;-50
2023/08/26 13:55:28;;;;;;;4.07;2.47;;;;;;;;;;5046211;28;20175;-50
2023/08/26 13:57:55;;;;;;;2.50;2.20;;;;;;;;;;5047326;28;20169;-50
2023/08/26 14:00:21;;;;;;;2.87;2.17;;;;;;;;;;5047166;28;20166;-51
2023/08/26 14:02:48;;;;;;;4.23;2.20;;;;;;;;;;5046941;28;20593;-49
2023/08/26 14:05:14;;;;;;;2.27;1.80;;;;;;;;;;5050329;28;20522;-53
2023/08/26 14:07:42;;;;;;;3.72;2.92;;;;;;;;;;5046266;28;20201;-52
2023/08/26 14:10:08;;;;;;;4.93;2.97;;;;;;;;;;5046500;28;20268;-50
2023/08/26 14:12:38;;;;;;;4.03;3.23;;;;;;;;;;5047701;28;20176;-53
2023/08/26 14:15:05;;;;;;;3.33;2.77;;;;;;;;;;5047905;28;20180;-52
2023/08/26 14:17:31;;;;;;;3.67;2.70;;;;;;;;;;5046255;28;20224;-49
2023/08/26 14:19:59;;;;;;;4.80;3.23;;;;;;;;;;5047402;28;20188;-52
2023/08/26 14:22:25;;;;;;;4.97;3.60;;;;;;;;;;5043802;28;20237;-53
2023/08/26 14:24:52;;;;;;;5.43;3.37;;;;;;;;;;5045450;28;20712;-52
2023/08/26 14:27:18;;;;;;;5.13;3.60;;;;;;;;;;5047453;28;20228;-53
2023/08/26 14:29:44;;;;;;;5.87;3.17;;;;;;;;;;5048866;28;20180;-49
2023/08/26 14:32:10;;;;;;;5.33;4.30;;;;;;;;;;5046347;28;20165;-49